Flight Track Log - Related Links

Times and Time Zones

All times are in EDT time to prevent confusion due to time zone crossing. See the AWE997 flight status page for this flight to view local times or setup timezone preferences in your user account.

Time Position Orientation Groundspeed Altitude Reporting Facility
EDT Latitude Longitude Course Direction KTS MPH feet Rate Location/Type
Mon 10:53:22 AM 41.9333 -87.9000 90° East 171 197 2,400  Level Chicago TRACON
Mon 10:54:22 AM 41.9000 -87.8333 124° Southeast 233 268 4,300 1,265 Climbing Chicago TRACON
Mon 10:55:00 AM 41.9546 -87.4168 97° East  Level FlightAware
Mon 10:56:00 AM 41.9422 -87.2564 95° East  Level FlightAware
Mon 10:56:27 AM 41.8958 -87.6278 91° East 268 308 6,300  Level Chicago Center
Mon 10:57:00 AM 41.9333 -87.0956 90° East  Level FlightAware
Mon 10:57:29 AM 41.9042 -87.5244 84° East 277 319 9,300  Level Chicago Center
Mon 10:58:00 AM 41.9333 -86.9343 90° East  Level FlightAware
Mon 10:58:31 AM 41.9150 -87.4169 82° East 286 329 11,800  Level Chicago Center
Mon 10:59:32 AM 41.9256 -87.3003 83° East 309 356 13,500 1,512 Climbing Chicago Center
Mon 11:00:34 AM 41.9378 -87.1650 83° East 360 414 14,900 2,032 Climbing Chicago Center
Mon 11:01:36 AM 41.9469 -86.9950 86° East 377 434 17,700 2,098 Climbing Chicago Center
Mon 11:02:37 AM 41.9475 -86.8494 90° East 388 447 19,200 1,512 Climbing Chicago Center
Mon 11:03:39 AM 41.9511 -86.7003 88° East 398 458 20,800 1,597 Climbing Chicago Center
Mon 11:04:41 AM 41.9528 -86.5328 89° East 416 479 22,500 1,512 Climbing Chicago Center
Mon 11:05:42 AM 41.9544 -86.3744 89° East 424 488 23,900 1,317 Climbing Chicago Center
Mon 11:06:44 AM 41.9542 -86.2106 90° East 435 501 25,200 1,210 Climbing Chicago Center
Mon 11:07:46 AM 41.9397 -86.0442 97° East 446 513 26,400 1,122 Climbing Chicago Center
Mon 11:08:47 AM 41.9244 -85.8764 97° East 453 521 27,500 1,073 Climbing Chicago Center
Mon 11:09:49 AM 41.9078 -85.7058 97° East 458 527 28,600 1,016 Climbing Chicago Center
Mon 11:10:51 AM 41.8914 -85.5311 97° East 466 536 29,600 1,073 Climbing Chicago Center
Mon 11:11:52 AM 41.8733 -85.3542 98° East 471 542 30,800 1,073 Climbing Chicago Center
Mon 11:12:54 AM 41.8567 -85.1789 97° East 468 539 31,800 1,125 Climbing Chicago Center
Mon 11:13:12 AM 41.8517 -85.1108 96° East 470 541 32,300 1,154 Climbing Cleveland Center
Mon 11:14:12 AM 41.8319 -84.9256 98° East 449 517 33,300 900 Climbing Cleveland Center
Mon 11:15:12 AM 41.8153 -84.7517 97° East 454 522 34,100 694 Climbing Cleveland Center
Mon 11:16:13 AM 41.7964 -84.5831 98° East 454 522 34,700 744 Climbing Cleveland Center
Mon 11:17:13 AM 41.7794 -84.4067 97° East 465 535 35,600 807 Climbing Cleveland Center
Mon 11:18:12 AM 41.7744 -84.2392 92° East 465 535 36,300 706 Climbing Cleveland Center
Mon 11:19:12 AM 41.7422 -84.0731 105° East 465 535 37,000 347 Climbing Cleveland Center
Mon 11:20:13 AM 41.7072 -83.9097 106° East 465 535 37,000  Level Cleveland Center
Mon 11:21:12 AM 41.6703 -83.7439 107° East 460 529 37,000  Level Cleveland Center
Mon 11:22:12 AM 41.6350 -83.5811 106° East 465 535 37,000  Level Cleveland Center
Mon 11:23:12 AM 41.5978 -83.4153 107° East 460 529 37,000  Level Cleveland Center
Mon 11:24:12 AM 41.5619 -83.2556 107° East 460 529 37,000  Level Cleveland Center
Mon 11:25:12 AM 41.5239 -83.0931 107° East 460 529 37,000  Level Cleveland Center
Mon 11:26:12 AM 41.4878 -82.9283 106° East 460 529 37,000  Level Cleveland Center
Mon 11:27:12 AM 41.4492 -82.7661 108° East 460 529 37,000  Level Cleveland Center
Mon 11:28:12 AM 41.4164 -82.6211 107° East 460 529 37,000  Level Cleveland Center
Mon 11:29:13 AM 41.3775 -82.4567 107° East 465 535 37,000  Level Cleveland Center
Mon 11:30:12 AM 41.3386 -82.2922 107° East 465 535 37,000  Level Cleveland Center
Mon 11:31:12 AM 41.2992 -82.1225 107° East 465 535 37,000  Level Cleveland Center
Mon 11:32:12 AM 41.2617 -81.9586 107° East 465 535 37,000  Level Cleveland Center
Mon 11:33:12 AM 41.2219 -81.7922 108° East 465 535 37,000  Level Cleveland Center
Mon 11:34:12 AM 41.1817 -81.6286 108° East 465 535 37,000  Level Cleveland Center
Mon 11:35:13 AM 41.1414 -81.4625 108° East 465 535 37,000  Level Cleveland Center
Mon 11:36:12 AM 41.0989 -81.2994 109° East 466 536 37,000  Level Cleveland Center
Mon 11:37:12 AM 41.0561 -81.1339 109° East 466 536 37,000  Level Cleveland Center
Mon 11:38:13 AM 41.0192 -80.9656 106° East 466 536 37,000  Level Cleveland Center
Mon 11:39:12 AM 40.9758 -80.8031 109° East 466 536 37,000  Level Cleveland Center
Mon 11:40:12 AM 40.9364 -80.6381 108° East 466 536 37,000  Level Cleveland Center
Mon 11:41:12 AM 40.8925 -80.4733 109° East 472 543 37,000  Level Cleveland Center
Mon 11:42:12 AM 40.8464 -80.2978 109° East 466 536 37,000  Level Cleveland Center
Mon 11:43:12 AM 40.7958 -80.1389 113° Southeast 466 536 37,000  Level Cleveland Center
Mon 11:44:12 AM 40.7472 -79.9967 114° Southeast 471 542 37,000  Level Cleveland Center
Mon 11:45:12 AM 40.6922 -79.8411 115° Southeast 471 542 37,000  Level Cleveland Center
Mon 11:46:12 AM 40.6306 -79.6747 116° Southeast 464 534 37,000  Level Cleveland Center
Mon 11:47:13 AM 40.5750 -79.5197 115° Southeast 464 534 37,000  Level Cleveland Center
Mon 11:48:12 AM 40.5172 -79.3678 117° Southeast 464 534 37,000  Level Cleveland Center
Mon 11:49:12 AM 40.4675 -79.2103 112° Southeast 464 534 37,000  Level Cleveland Center
Mon 11:50:12 AM 40.4508 -79.0497 98° East 470 541 37,000  Level Cleveland Center
Mon 11:51:12 AM 40.4275 -78.8783 100° East 475 547 37,000 -400 Level Cleveland Center
Mon 11:52:12 AM 40.4061 -78.7044 99° East 475 547 36,200 -2,135 Descending Cleveland Center
Mon 11:54:40 AM 40.3539 -78.2861 99° East 468 539 29,600 -2,580 Descending New Center
Mon 11:55:39 AM 40.3325 -78.1286 100° East 468 539 27,300 -2,182 Descending New Center
Mon 11:56:41 AM 40.3131 -77.9686 99° East 458 527 25,200 -1,150 Descending New Center
Mon 11:57:39 AM 40.3100 -77.8103 91° East 443 510 25,000 -151 Descending New Center
Mon 11:58:40 AM 40.3081 -77.6331 91° East 444 511 24,900 -900 Descending New Center
Mon 11:59:39 AM 40.3086 -77.4781 90° East 444 511 23,200 -1,866 Descending New Center
Mon 12:00:39 PM 40.3058 -77.3417 91° East 410 472 21,200 -2,100 Descending New Center
Mon 12:01:39 PM 40.3025 -77.2133 92° East 374 430 19,000 -1,587 Descending New Center
Mon 12:02:40 PM 40.3011 -77.0825 91° East 357 411 18,000 -496 Descending New Center
Mon 12:03:40 PM 40.2764 -76.9578 105° East 345 397 18,000 -101 Level New Center
Mon 12:04:39 PM 40.2475 -76.8356 107° East 351 404 17,800 -303 Descending New Center
Mon 12:05:39 PM 40.2217 -76.7272 107° East 351 404 17,400 -650 Descending New Center
Mon 12:06:39 PM 40.2194 -76.6019 91° East 341 392 16,500 -992 Descending New Center
Mon 12:07:40 PM 40.2611 -76.4747 67° East 336 387 15,400 -984 Descending New Center
Mon 12:08:41 PM 40.2542 -76.3600 94° East 317 365 14,500 -1,008 Descending New Center
Mon 12:09:39 PM 40.2256 -76.2597 110° East 317 365 13,400 -1,062 Descending New Center
Mon 12:10:34 PM 40.1950 -76.1517 110° East 306 352 12,500 -960 Descending FAA TRACON
Mon 12:10:54 PM 40.1872 -76.1222 109° East 302 348 12,200 -1,050 Descending FAA TRACON
Mon 12:11:14 PM 40.1756 -76.0819 111° Southeast 297 342 11,800 -1,050 Descending FAA TRACON
Mon 12:11:34 PM 40.1667 -76.0506 110° East 298 343 11,500 -1,050 Descending FAA TRACON
Mon 12:11:54 PM 40.1583 -76.0189 109° East 299 344 11,100 -1,050 Descending FAA TRACON
Mon 12:12:14 PM 40.1486 -75.9789 108° East 297 342 10,800 -1,050 Descending FAA TRACON
Mon 12:12:34 PM 40.1383 -75.9489 114° Southeast 297 342 10,400 -900 Descending FAA TRACON
Mon 12:12:54 PM 40.1300 -75.9208 111° Southeast 294 338 10,200 -750 Descending FAA TRACON
Mon 12:13:14 PM 40.1211 -75.8817 107° East 291 335 9,900 -1,050 Descending FAA TRACON
Mon 12:13:34 PM 40.1108 -75.8500 113° Southeast 289 333 9,500 -1,200 Descending FAA TRACON
Mon 12:13:54 PM 40.1022 -75.8206 111° Southeast 285 328 9,100 -1,500 Descending FAA TRACON
Mon 12:14:14 PM 40.0925 -75.7853 110° East 281 323 8,500 -1,500 Descending FAA TRACON
Mon 12:14:34 PM 40.0842 -75.7547 110° East 275 316 8,100 -977 Descending FAA TRACON
Mon 12:14:57 PM 40.0811 -75.7181 96° East 274 315 7,800 -698 Descending FAA TRACON
Mon 12:15:17 PM 40.0808 -75.6892 91° East 268 308 7,600 -649 Descending FAA TRACON
Mon 12:15:34 PM 40.0781 -75.6581 97° East 269 310 7,400 -486 Descending FAA TRACON
Mon 12:15:54 PM 40.0778 -75.6286 91° East 268 308 7,300 -600 Descending FAA TRACON
Mon 12:16:14 PM 40.0756 -75.5931 95° East 266 306 7,000 -600 Descending FAA TRACON
Mon 12:16:34 PM 40.0733 -75.5608 95° East 266 306 6,900 -450 Descending FAA TRACON
Mon 12:16:54 PM 40.0719 -75.5322 94° East 264 304 6,700 -600 Descending FAA TRACON
Mon 12:17:14 PM 40.0703 -75.5036 94° East 259 298 6,500 -600 Descending FAA TRACON
Mon 12:17:34 PM 40.0608 -75.4717 111° Southeast 255 293 6,300 -600 Descending FAA TRACON
Mon 12:17:54 PM 40.0419 -75.4578 151° Southeast 258 297 6,100 -450 Descending FAA TRACON
Mon 12:18:14 PM 40.0178 -75.4583 181° South 261 300 6,000 -150 Descending FAA TRACON
Mon 12:18:34 PM 39.9964 -75.4761 212° Southwest 271 312 6,000  Level FAA TRACON
Mon 12:18:54 PM 39.9794 -75.4958 222° Southwest 263 303 6,000  Level FAA TRACON
Mon 12:19:14 PM 39.9644 -75.5142 223° Southwest 241 277 6,000  Level FAA TRACON
Mon 12:19:34 PM 39.9467 -75.5364 224° Southwest 231 266 6,000  Level FAA TRACON
Mon 12:19:54 PM 39.9331 -75.5517 221° Southwest 204 235 6,000 -300 Level FAA TRACON
Mon 12:20:14 PM 39.9206 -75.5653 220° Southwest 190 219 5,800 -1,200 Descending FAA TRACON
Mon 12:20:34 PM 39.9014 -75.5658 181° South 190 219 5,200 -1,800 Descending FAA TRACON
Mon 12:20:54 PM 39.8861 -75.5633 173° South 182 209 4,600 -1,350 Descending FAA TRACON
Mon 12:21:14 PM 39.8689 -75.5603 172° South 185 213 4,300 -1,050 Descending FAA TRACON
Mon 12:21:34 PM 39.8514 -75.5517 159° South 185 213 3,900 -1,200 Descending FAA TRACON
Mon 12:21:54 PM 39.8417 -75.5375 132° Southeast 177 204 3,500 -900 Descending FAA TRACON
Mon 12:22:14 PM 39.8367 -75.5200 110° East 168 193 3,300 -750 Descending FAA TRACON
Mon 12:22:34 PM 39.8308 -75.4981 109° East 167 192 3,000 -450 Descending FAA TRACON
Mon 12:22:54 PM 39.8264 -75.4808 109° East 169 194 3,000 -150 Level FAA TRACON
Mon 12:23:14 PM 39.8242 -75.4606 98° East 189 217 2,900 -300 Descending FAA TRACON

Login

Don't have an account? Register now (free) for customized features, flight alerts, and more!